sensor_id;sensor_type;location;lat;lon;timestamp;temperature;humidity
31499;DHT22;18115;52.486;13.386;2023-02-17T00:01:22;7.70;99.90
31499;DHT22;18115;52.486;13.386;2023-02-17T00:03:49;7.60;99.90
31499;DHT22;18115;52.486;13.386;2023-02-17T00:06:16;7.60;99.90
31499;DHT22;18115;52.486;13.386;2023-02-17T00:16:12;7.50;99.90
31499;DHT22;18115;52.486;13.386;2023-02-17T00:21:13;7.50;99.90
31499;DHT22;18115;52.486;13.386;2023-02-17T00:26:06;7.40;99.90
31499;DHT22;18115;52.486;13.386;2023-02-17T00:28:32;7.20;99.90
31499;DHT22;18115;52.486;13.386;2023-02-17T00:35:49;7.30;99.90
31499;DHT22;18115;52.486;13.386;2023-02-17T00:38:15;7.40;99.90
31499;DHT22;18115;52.486;13.386;2023-02-17T00:43:06;7.40;99.90
31499;DHT22;18115;52.486;13.386;2023-02-17T01:00:09;7.20;99.90
31499;DHT22;18115;52.486;13.386;2023-02-17T01:07:26;6.90;99.90
31499;DHT22;18115;52.486;13.386;2023-02-17T01:09:52;7.30;99.90
31499;DHT22;18115;52.486;13.386;2023-02-17T01:12:18;7.40;99.90
31499;DHT22;18115;52.486;13.386;2023-02-17T01:17:09;7.40;99.90
31499;DHT22;18115;52.486;13.386;2023-02-17T01:19:35;7.50;99.90
31499;DHT22;18115;52.486;13.386;2023-02-17T01:22:01;7.30;99.90
31499;DHT22;18115;52.486;13.386;2023-02-17T01:26:52;7.80;99.90
31499;DHT22;18115;52.486;13.386;2023-02-17T01:31:44;7.30;99.90
31499;DHT22;18115;52.486;13.386;2023-02-17T01:36:36;7.70;99.90
31499;DHT22;18115;52.486;13.386;2023-02-17T01:39:01;6.90;99.90
31499;DHT22;18115;52.486;13.386;2023-02-17T01:41:27;7.30;99.90
31499;DHT22;18115;52.486;13.386;2023-02-17T01:44:20;7.30;99.90
31499;DHT22;18115;52.486;13.386;2023-02-17T01:46:49;7.40;99.90
31499;DHT22;18115;52.486;13.386;2023-02-17T01:49:21;7.30;99.90
31499;DHT22;18115;52.486;13.386;2023-02-17T01:51:59;7.40;99.90
31499;DHT22;18115;52.486;13.386;2023-02-17T01:54:32;7.20;99.90
31499;DHT22;18115;52.486;13.386;2023-02-17T01:56:59;7.20;99.90
31499;DHT22;18115;52.486;13.386;2023-02-17T01:59:27;7.20;99.90
31499;DHT22;18115;52.486;13.386;2023-02-17T02:01:57;7.20;99.90
31499;DHT22;18115;52.486;13.386;2023-02-17T02:04:26;7.20;99.90
31499;DHT22;18115;52.486;13.386;2023-02-17T02:06:53;7.20;99.90
31499;DHT22;18115;52.486;13.386;2023-02-17T02:09:23;7.40;99.90
31499;DHT22;18115;52.486;13.386;2023-02-17T02:11:50;7.20;99.90
31499;DHT22;18115;52.486;13.386;2023-02-17T02:14:17;7.20;99.90
31499;DHT22;18115;52.486;13.386;2023-02-17T02:16:55;7.70;99.90
31499;DHT22;18115;52.486;13.386;2023-02-17T02:28:26;6.70;99.90
31499;DHT22;18115;52.486;13.386;2023-02-17T02:34:06;7.00;99.90
31499;DHT22;18115;52.486;13.386;2023-02-17T02:36:38;7.00;99.90
31499;DHT22;18115;52.486;13.386;2023-02-17T02:39:16;6.80;99.90
31499;DHT22;18115;52.486;13.386;2023-02-17T02:41:49;7.00;99.90
31499;DHT22;18115;52.486;13.386;2023-02-17T02:44:19;7.00;99.90
31499;DHT22;18115;52.486;13.386;2023-02-17T02:46:55;7.00;99.90
31499;DHT22;18115;52.486;13.386;2023-02-17T02:49:21;7.10;99.90
31499;DHT22;18115;52.486;13.386;2023-02-17T02:52:10;6.90;99.90
31499;DHT22;18115;52.486;13.386;2023-02-17T03:00:31;7.10;99.90
31499;DHT22;18115;52.486;13.386;2023-02-17T03:03:09;7.00;99.90
31499;DHT22;18115;52.486;13.386;2023-02-17T03:08:42;6.90;99.90
31499;DHT22;18115;52.486;13.386;2023-02-17T03:11:11;7.00;99.90
31499;DHT22;18115;52.486;13.386;2023-02-17T03:13:37;7.00;99.90
31499;DHT22;18115;52.486;13.386;2023-02-17T03:16:06;7.00;99.90
31499;DHT22;18115;52.486;13.386;2023-02-17T03:18:33;7.00;99.90
31499;DHT22;18115;52.486;13.386;2023-02-17T03:21:17;7.10;99.90
31499;DHT22;18115;52.486;13.386;2023-02-17T03:23:43;7.10;99.90
31499;DHT22;18115;52.486;13.386;2023-02-17T03:26:09;7.00;99.90
31499;DHT22;18115;52.486;13.386;2023-02-17T03:28:34;7.00;99.90
31499;DHT22;18115;52.486;13.386;2023-02-17T03:31:00;7.10;99.90
31499;DHT22;18115;52.486;13.386;2023-02-17T03:33:25;7.00;99.90
31499;DHT22;18115;52.486;13.386;2023-02-17T03:35:51;7.00;99.90
31499;DHT22;18115;52.486;13.386;2023-02-17T03:38:17;7.00;99.90
31499;DHT22;18115;52.486;13.386;2023-02-17T03:40:42;7.00;99.90
31499;DHT22;18115;52.486;13.386;2023-02-17T03:43:08;7.40;99.90
31499;DHT22;18115;52.486;13.386;2023-02-17T03:45:37;7.00;99.90
31499;DHT22;18115;52.486;13.386;2023-02-17T03:48:03;7.00;99.90
31499;DHT22;18115;52.486;13.386;2023-02-17T03:50:29;7.00;99.90
31499;DHT22;18115;52.486;13.386;2023-02-17T03:52:55;7.00;99.90
31499;DHT22;18115;52.486;13.386;2023-02-17T03:55:20;7.00;99.90
31499;DHT22;18115;52.486;13.386;2023-02-17T03:57:46;6.90;99.90
31499;DHT22;18115;52.486;13.386;2023-02-17T04:00:12;6.90;99.90
31499;DHT22;18115;52.486;13.386;2023-02-17T04:02:38;7.00;99.90
31499;DHT22;18115;52.486;13.386;2023-02-17T04:05:04;6.90;99.90
31499;DHT22;18115;52.486;13.386;2023-02-17T04:07:30;7.00;99.90
31499;DHT22;18115;52.486;13.386;2023-02-17T04:09:56;6.90;99.90
31499;DHT22;18115;52.486;13.386;2023-02-17T04:12:21;6.90;99.90
31499;DHT22;18115;52.486;13.386;2023-02-17T04:14:47;7.00;99.90
31499;DHT22;18115;52.486;13.386;2023-02-17T04:17:13;7.00;99.90
31499;DHT22;18115;52.486;13.386;2023-02-17T04:19:38;6.90;99.90
31499;DHT22;18115;52.486;13.386;2023-02-17T04:22:04;7.00;99.90
31499;DHT22;18115;52.486;13.386;2023-02-17T04:24:35;7.00;99.90
31499;DHT22;18115;52.486;13.386;2023-02-17T04:27:03;7.00;99.90
31499;DHT22;18115;52.486;13.386;2023-02-17T04:29:29;6.90;99.90
31499;DHT22;18115;52.486;13.386;2023-02-17T04:31:54;6.90;99.90
31499;DHT22;18115;52.486;13.386;2023-02-17T04:34:20;7.00;99.90
31499;DHT22;18115;52.486;13.386;2023-02-17T04:36:45;7.00;99.90
31499;DHT22;18115;52.486;13.386;2023-02-17T04:39:11;7.00;99.90
31499;DHT22;18115;52.486;13.386;2023-02-17T04:41:37;7.00;99.90
31499;DHT22;18115;52.486;13.386;2023-02-17T04:44:02;7.00;99.90
31499;DHT22;18115;52.486;13.386;2023-02-17T04:46:28;7.00;99.90
31499;DHT22;18115;52.486;13.386;2023-02-17T04:48:55;6.90;99.90
31499;DHT22;18115;52.486;13.386;2023-02-17T04:51:21;6.90;99.90
31499;DHT22;18115;52.486;13.386;2023-02-17T04:53:46;6.90;99.90
31499;DHT22;18115;52.486;13.386;2023-02-17T04:56:12;6.90;99.90
31499;DHT22;18115;52.486;13.386;2023-02-17T04:58:38;7.00;99.90
31499;DHT22;18115;52.486;13.386;2023-02-17T05:01:03;7.00;99.90
31499;DHT22;18115;52.486;13.386;2023-02-17T05:03:29;7.00;99.90
31499;DHT22;18115;52.486;13.386;2023-02-17T05:05:55;7.00;99.90
31499;DHT22;18115;52.486;13.386;2023-02-17T05:08:20;7.00;99.90
31499;DHT22;18115;52.486;13.386;2023-02-17T05:10:46;7.00;99.90
31499;DHT22;18115;52.486;13.386;2023-02-17T05:13:14;7.00;99.90
31499;DHT22;18115;52.486;13.386;2023-02-17T05:15:42;7.00;99.90
31499;DHT22;18115;52.486;13.386;2023-02-17T05:18:08;8.50;99.90
31499;DHT22;18115;52.486;13.386;2023-02-17T05:20:34;7.10;99.90
31499;DHT22;18115;52.486;13.386;2023-02-17T05:23:00;7.10;99.90
31499;DHT22;18115;52.486;13.386;2023-02-17T05:25:25;7.10;99.90
31499;DHT22;18115;52.486;13.386;2023-02-17T05:27:51;7.10;99.90
31499;DHT22;18115;52.486;13.386;2023-02-17T05:30:17;7.10;99.90
31499;DHT22;18115;52.486;13.386;2023-02-17T05:32:43;7.10;99.90
31499;DHT22;18115;52.486;13.386;2023-02-17T05:35:08;7.10;99.90
31499;DHT22;18115;52.486;13.386;2023-02-17T05:37:34;7.10;99.90
31499;DHT22;18115;52.486;13.386;2023-02-17T05:39:59;7.10;99.90
31499;DHT22;18115;52.486;13.386;2023-02-17T05:42:25;7.10;99.90
31499;DHT22;18115;52.486;13.386;2023-02-17T05:44:54;7.10;99.90
31499;DHT22;18115;52.486;13.386;2023-02-17T05:47:20;7.10;99.90
31499;DHT22;18115;52.486;13.386;2023-02-17T05:49:46;7.10;99.90
31499;DHT22;18115;52.486;13.386;2023-02-17T05:52:12;7.10;99.90
31499;DHT22;18115;52.486;13.386;2023-02-17T05:54:38;7.10;99.90
31499;DHT22;18115;52.486;13.386;2023-02-17T05:57:03;7.10;99.90
31499;DHT22;18115;52.486;13.386;2023-02-17T05:59:29;7.30;99.90
31499;DHT22;18115;52.486;13.386;2023-02-17T06:01:54;7.20;99.90
31499;DHT22;18115;52.486;13.386;2023-02-17T06:04:20;7.20;99.90
31499;DHT22;18115;52.486;13.386;2023-02-17T06:06:46;7.20;99.90
31499;DHT22;18115;52.486;13.386;2023-02-17T06:09:12;7.20;99.90
31499;DHT22;18115;52.486;13.386;2023-02-17T06:11:37;7.30;99.90
31499;DHT22;18115;52.486;13.386;2023-02-17T06:14:03;7.30;99.90
31499;DHT22;18115;52.486;13.386;2023-02-17T06:16:29;7.30;99.90
31499;DHT22;18115;52.486;13.386;2023-02-17T06:18:55;7.30;99.90
31499;DHT22;18115;52.486;13.386;2023-02-17T06:21:20;7.30;99.90
31499;DHT22;18115;52.486;13.386;2023-02-17T06:23:46;7.30;99.90
31499;DHT22;18115;52.486;13.386;2023-02-17T06:26:12;7.30;99.90
31499;DHT22;18115;52.486;13.386;2023-02-17T06:28:38;7.30;99.90
31499;DHT22;18115;52.486;13.386;2023-02-17T06:31:04;7.40;99.90
31499;DHT22;18115;52.486;13.386;2023-02-17T06:33:30;9.70;99.90
31499;DHT22;18115;52.486;13.386;2023-02-17T06:35:55;7.40;99.90
31499;DHT22;18115;52.486;13.386;2023-02-17T06:38:21;7.70;99.90
31499;DHT22;18115;52.486;13.386;2023-02-17T06:40:47;7.40;99.90
31499;DHT22;18115;52.486;13.386;2023-02-17T06:43:12;7.50;99.90
31499;DHT22;18115;52.486;13.386;2023-02-17T06:45:38;7.40;99.90
31499;DHT22;18115;52.486;13.386;2023-02-17T06:48:04;7.50;99.90
31499;DHT22;18115;52.486;13.386;2023-02-17T06:50:29;7.50;99.90
31499;DHT22;18115;52.486;13.386;2023-02-17T06:52:55;7.70;99.90
31499;DHT22;18115;52.486;13.386;2023-02-17T06:55:21;7.50;99.90
31499;DHT22;18115;52.486;13.386;2023-02-17T06:57:47;7.70;99.90
31499;DHT22;18115;52.486;13.386;2023-02-17T07:00:12;7.70;99.90
31499;DHT22;18115;52.486;13.386;2023-02-17T07:02:39;7.70;99.90
31499;DHT22;18115;52.486;13.386;2023-02-17T07:05:05;7.80;99.90
31499;DHT22;18115;52.486;13.386;2023-02-17T07:07:31;7.80;99.90
31499;DHT22;18115;52.486;13.386;2023-02-17T07:12:23;7.80;99.90
31499;DHT22;18115;52.486;13.386;2023-02-17T07:14:48;7.80;99.90
31499;DHT22;18115;52.486;13.386;2023-02-17T07:17:14;7.70;99.90
31499;DHT22;18115;52.486;13.386;2023-02-17T07:19:40;7.80;99.90
31499;DHT22;18115;52.486;13.386;2023-02-17T07:22:05;8.00;99.90
31499;DHT22;18115;52.486;13.386;2023-02-17T07:24:31;7.70;99.90
31499;DHT22;18115;52.486;13.386;2023-02-17T07:27:01;8.00;99.90
31499;DHT22;18115;52.486;13.386;2023-02-17T07:29:27;8.00;99.90
31499;DHT22;18115;52.486;13.386;2023-02-17T07:31:52;8.10;99.90
31499;DHT22;18115;52.486;13.386;2023-02-17T07:34:18;8.10;99.90
31499;DHT22;18115;52.486;13.386;2023-02-17T07:36:44;8.10;99.90
31499;DHT22;18115;52.486;13.386;2023-02-17T07:39:09;8.20;99.90
31499;DHT22;18115;52.486;13.386;2023-02-17T07:41:35;8.00;99.90
31499;DHT22;18115;52.486;13.386;2023-02-17T07:44:01;8.30;99.90
31499;DHT22;18115;52.486;13.386;2023-02-17T07:46:26;8.30;99.90
31499;DHT22;18115;52.486;13.386;2023-02-17T07:48:52;8.30;99.90
31499;DHT22;18115;52.486;13.386;2023-02-17T07:51:20;8.40;99.90
31499;DHT22;18115;52.486;13.386;2023-02-17T07:53:47;8.40;99.90
31499;DHT22;18115;52.486;13.386;2023-02-17T07:56:14;8.50;99.90
31499;DHT22;18115;52.486;13.386;2023-02-17T07:58:42;8.40;99.90
31499;DHT22;18115;52.486;13.386;2023-02-17T08:03:35;8.60;99.90
31499;DHT22;18115;52.486;13.386;2023-02-17T08:06:01;8.60;99.90
31499;DHT22;18115;52.486;13.386;2023-02-17T08:08:27;8.60;99.90
31499;DHT22;18115;52.486;13.386;2023-02-17T08:11:13;8.60;99.90
31499;DHT22;18115;52.486;13.386;2023-02-17T08:13:58;8.70;99.90
31499;DHT22;18115;52.486;13.386;2023-02-17T08:16:23;8.60;99.90
31499;DHT22;18115;52.486;13.386;2023-02-17T08:18:55;8.60;99.90
31499;DHT22;18115;52.486;13.386;2023-02-17T08:21:22;8.60;99.90
31499;DHT22;18115;52.486;13.386;2023-02-17T08:23:48;8.60;99.90
31499;DHT22;18115;52.486;13.386;2023-02-17T08:26:14;8.70;99.90
31499;DHT22;18115;52.486;13.386;2023-02-17T08:28:40;8.70;99.90
31499;DHT22;18115;52.486;13.386;2023-02-17T08:33:42;8.80;99.90
31499;DHT22;18115;52.486;13.386;2023-02-17T08:36:08;8.80;99.90
31499;DHT22;18115;52.486;13.386;2023-02-17T08:38:34;8.80;99.90
31499;DHT22;18115;52.486;13.386;2023-02-17T08:41:00;8.80;99.90
31499;DHT22;18115;52.486;13.386;2023-02-17T08:43:25;8.80;99.90
31499;DHT22;18115;52.486;13.386;2023-02-17T08:45:51;8.80;99.90
31499;DHT22;18115;52.486;13.386;2023-02-17T08:48:16;8.80;99.90
31499;DHT22;18115;52.486;13.386;2023-02-17T08:50:42;8.80;99.90
31499;DHT22;18115;52.486;13.386;2023-02-17T08:53:11;8.80;99.90
31499;DHT22;18115;52.486;13.386;2023-02-17T08:55:36;8.80;99.90
31499;DHT22;18115;52.486;13.386;2023-02-17T08:58:02;8.90;99.90
31499;DHT22;18115;52.486;13.386;2023-02-17T09:00:27;8.80;99.90
31499;DHT22;18115;52.486;13.386;2023-02-17T09:02:53;8.90;99.90
31499;DHT22;18115;52.486;13.386;2023-02-17T09:05:19;8.90;99.90
31499;DHT22;18115;52.486;13.386;2023-02-17T09:07:44;8.90;99.90
31499;DHT22;18115;52.486;13.386;2023-02-17T09:10:11;8.90;99.90
31499;DHT22;18115;52.486;13.386;2023-02-17T09:12:37;8.80;99.90
31499;DHT22;18115;52.486;13.386;2023-02-17T09:15:03;8.90;99.90
31499;DHT22;18115;52.486;13.386;2023-02-17T09:17:28;8.90;99.90
31499;DHT22;18115;52.486;13.386;2023-02-17T09:19:54;8.80;99.90
31499;DHT22;18115;52.486;13.386;2023-02-17T09:22:19;8.80;99.90
31499;DHT22;18115;52.486;13.386;2023-02-17T09:24:46;8.90;99.90
31499;DHT22;18115;52.486;13.386;2023-02-17T09:27:11;8.90;99.90
31499;DHT22;18115;52.486;13.386;2023-02-17T09:29:38;8.90;99.90
31499;DHT22;18115;52.486;13.386;2023-02-17T09:32:08;8.90;99.90
31499;DHT22;18115;52.486;13.386;2023-02-17T09:34:38;9.00;99.90
31499;DHT22;18115;52.486;13.386;2023-02-17T09:37:10;8.90;99.90
31499;DHT22;18115;52.486;13.386;2023-02-17T09:39:36;8.90;99.90
31499;DHT22;18115;52.486;13.386;2023-02-17T09:42:02;8.90;99.90
31499;DHT22;18115;52.486;13.386;2023-02-17T09:44:38;8.90;99.90
31499;DHT22;18115;52.486;13.386;2023-02-17T09:49:49;9.10;99.90
31499;DHT22;18115;52.486;13.386;2023-02-17T09:55:15;9.00;99.90
31499;DHT22;18115;52.486;13.386;2023-02-17T09:57:50;9.00;99.90
31499;DHT22;18115;52.486;13.386;2023-02-17T10:00:31;9.00;99.90
31499;DHT22;18115;52.486;13.386;2023-02-17T10:05:30;9.00;99.90
31499;DHT22;18115;52.486;13.386;2023-02-17T10:08:17;9.00;99.90
31499;DHT22;18115;52.486;13.386;2023-02-17T10:10:52;9.00;99.90
31499;DHT22;18115;52.486;13.386;2023-02-17T10:13:20;9.00;99.90
31499;DHT22;18115;52.486;13.386;2023-02-17T10:15:50;9.00;99.90
31499;DHT22;18115;52.486;13.386;2023-02-17T10:18:30;9.00;99.90
31499;DHT22;18115;52.486;13.386;2023-02-17T10:21:06;9.00;99.90
31499;DHT22;18115;52.486;13.386;2023-02-17T10:23:36;9.00;99.90
31499;DHT22;18115;52.486;13.386;2023-02-17T10:26:27;9.00;99.90
31499;DHT22;18115;52.486;13.386;2023-02-17T10:29:05;9.00;99.90
31499;DHT22;18115;52.486;13.386;2023-02-17T10:34:37;8.30;99.90
31499;DHT22;18115;52.486;13.386;2023-02-17T10:37:13;9.10;99.90
31499;DHT22;18115;52.486;13.386;2023-02-17T10:39:55;9.20;99.90
31499;DHT22;18115;52.486;13.386;2023-02-17T10:42:37;9.20;99.90
31499;DHT22;18115;52.486;13.386;2023-02-17T10:47:55;9.30;99.90
31499;DHT22;18115;52.486;13.386;2023-02-17T10:50:23;9.60;99.90
31499;DHT22;18115;52.486;13.386;2023-02-17T10:52:49;9.20;99.90
31499;DHT22;18115;52.486;13.386;2023-02-17T10:55:35;9.30;99.90
31499;DHT22;18115;52.486;13.386;2023-02-17T10:58:28;9.40;99.90
31499;DHT22;18115;52.486;13.386;2023-02-17T11:00:55;9.40;99.90
31499;DHT22;18115;52.486;13.386;2023-02-17T11:03:27;9.30;99.90
31499;DHT22;18115;52.486;13.386;2023-02-17T11:05:58;9.40;99.90
31499;DHT22;18115;52.486;13.386;2023-02-17T11:11:02;9.60;99.90
31499;DHT22;18115;52.486;13.386;2023-02-17T11:13:33;9.60;99.90
31499;DHT22;18115;52.486;13.386;2023-02-17T11:16:00;9.60;99.90
31499;DHT22;18115;52.486;13.386;2023-02-17T11:18:35;9.50;99.90
31499;DHT22;18115;52.486;13.386;2023-02-17T11:21:09;9.90;99.90
31499;DHT22;18115;52.486;13.386;2023-02-17T11:23:51;9.70;99.90
31499;DHT22;18115;52.486;13.386;2023-02-17T11:26:22;9.70;99.90
31499;DHT22;18115;52.486;13.386;2023-02-17T11:28:48;9.80;99.90
31499;DHT22;18115;52.486;13.386;2023-02-17T11:31:24;9.80;99.90
31499;DHT22;18115;52.486;13.386;2023-02-17T11:36:29;9.90;99.90
31499;DHT22;18115;52.486;13.386;2023-02-17T11:38:56;9.90;99.90
31499;DHT22;18115;52.486;13.386;2023-02-17T11:41:22;10.00;99.90
31499;DHT22;18115;52.486;13.386;2023-02-17T11:43:56;10.00;99.90
31499;DHT22;18115;52.486;13.386;2023-02-17T11:46:49;10.00;99.90
31499;DHT22;18115;52.486;13.386;2023-02-17T11:57:41;10.20;99.90
31499;DHT22;18115;52.486;13.386;2023-02-17T12:00:21;10.00;99.90
31499;DHT22;18115;52.486;13.386;2023-02-17T12:16:50;10.20;99.90
31499;DHT22;18115;52.486;13.386;2023-02-17T12:25:34;7.30;99.90
31499;DHT22;18115;52.486;13.386;2023-02-17T12:36:07;10.60;99.90
31499;DHT22;18115;52.486;13.386;2023-02-17T12:38:42;11.10;99.90
31499;DHT22;18115;52.486;13.386;2023-02-17T12:41:17;10.90;99.90
31499;DHT22;18115;52.486;13.386;2023-02-17T12:44:21;11.00;99.90
31499;DHT22;18115;52.486;13.386;2023-02-17T12:46:54;11.00;99.90
31499;DHT22;18115;52.486;13.386;2023-02-17T12:52:07;11.10;99.90
31499;DHT22;18115;52.486;13.386;2023-02-17T12:57:25;11.30;99.90
31499;DHT22;18115;52.486;13.386;2023-02-17T12:59:56;11.50;99.90
31499;DHT22;18115;52.486;13.386;2023-02-17T13:02:24;11.20;99.90
31499;DHT22;18115;52.486;13.386;2023-02-17T13:04:56;11.40;99.90
31499;DHT22;18115;52.486;13.386;2023-02-17T13:07:39;11.50;99.90
31499;DHT22;18115;52.486;13.386;2023-02-17T13:13:26;11.30;99.90
31499;DHT22;18115;52.486;13.386;2023-02-17T13:18:36;11.40;99.90
31499;DHT22;18115;52.486;13.386;2023-02-17T13:23:42;11.50;99.90
31499;DHT22;18115;52.486;13.386;2023-02-17T13:26:25;11.60;99.90
31499;DHT22;18115;52.486;13.386;2023-02-17T13:28:53;11.40;99.90
31499;DHT22;18115;52.486;13.386;2023-02-17T13:31:30;11.60;99.90
31499;DHT22;18115;52.486;13.386;2023-02-17T13:33:58;11.60;99.90
31499;DHT22;18115;52.486;13.386;2023-02-17T13:38:58;11.70;99.90
31499;DHT22;18115;52.486;13.386;2023-02-17T13:41:27;11.60;99.90
31499;DHT22;18115;52.486;13.386;2023-02-17T13:43:54;11.80;99.90
31499;DHT22;18115;52.486;13.386;2023-02-17T13:46:25;11.70;99.90
31499;DHT22;18115;52.486;13.386;2023-02-17T13:49:00;11.80;99.90
31499;DHT22;18115;52.486;13.386;2023-02-17T13:51:28;11.90;99.90
31499;DHT22;18115;52.486;13.386;2023-02-17T13:53:55;11.80;99.90
31499;DHT22;18115;52.486;13.386;2023-02-17T13:56:26;11.80;99.90
31499;DHT22;18115;52.486;13.386;2023-02-17T13:58:52;11.90;99.90
31499;DHT22;18115;52.486;13.386;2023-02-17T14:01:21;11.70;99.90
31499;DHT22;18115;52.486;13.386;2023-02-17T14:03:52;11.90;99.90
31499;DHT22;18115;52.486;13.386;2023-02-17T14:06:36;11.90;99.90
31499;DHT22;18115;52.486;13.386;2023-02-17T14:09:25;11.90;99.90
31499;DHT22;18115;52.486;13.386;2023-02-17T14:11:53;12.00;99.90
31499;DHT22;18115;52.486;13.386;2023-02-17T14:14:22;12.00;99.90
31499;DHT22;18115;52.486;13.386;2023-02-17T14:17:27;12.00;99.90
31499;DHT22;18115;52.486;13.386;2023-02-17T14:19:53;12.00;99.90
31499;DHT22;18115;52.486;13.386;2023-02-17T14:22:37;12.00;99.90
31499;DHT22;18115;52.486;13.386;2023-02-17T14:25:11;12.10;99.90
31499;DHT22;18115;52.486;13.386;2023-02-17T14:27:42;11.70;99.90
31499;DHT22;18115;52.486;13.386;2023-02-17T14:35:52;12.10;99.90
31499;DHT22;18115;52.486;13.386;2023-02-17T14:40:46;12.00;99.90
31499;DHT22;18115;52.486;13.386;2023-02-17T14:43:11;12.00;99.90
31499;DHT22;18115;52.486;13.386;2023-02-17T14:45:37;12.00;99.90
31499;DHT22;18115;52.486;13.386;2023-02-17T14:48:03;12.10;99.90
31499;DHT22;18115;52.486;13.386;2023-02-17T14:50:31;11.90;99.90
31499;DHT22;18115;52.486;13.386;2023-02-17T14:52:57;11.70;99.90
31499;DHT22;18115;52.486;13.386;2023-02-17T14:55:31;11.60;99.90
31499;DHT22;18115;52.486;13.386;2023-02-17T14:57:59;11.40;99.90
31499;DHT22;18115;52.486;13.386;2023-02-17T15:00:24;11.30;99.90
31499;DHT22;18115;52.486;13.386;2023-02-17T15:02:50;11.70;99.90
31499;DHT22;18115;52.486;13.386;2023-02-17T15:05:17;10.60;99.90
31499;DHT22;18115;52.486;13.386;2023-02-17T15:07:43;11.10;99.90
31499;DHT22;18115;52.486;13.386;2023-02-17T15:10:24;11.00;99.90
31499;DHT22;18115;52.486;13.386;2023-02-17T15:12:50;10.60;99.90
31499;DHT22;18115;52.486;13.386;2023-02-17T15:15:16;10.90;99.90
31499;DHT22;18115;52.486;13.386;2023-02-17T15:17:42;11.00;99.90
31499;DHT22;18115;52.486;13.386;2023-02-17T15:20:09;10.80;99.90
31499;DHT22;18115;52.486;13.386;2023-02-17T15:22:35;10.90;99.90
31499;DHT22;18115;52.486;13.386;2023-02-17T15:25:14;10.80;99.90
31499;DHT22;18115;52.486;13.386;2023-02-17T15:27:40;11.00;99.90
31499;DHT22;18115;52.486;13.386;2023-02-17T15:30:13;14.30;99.90
31499;DHT22;18115;52.486;13.386;2023-02-17T15:32:40;10.80;99.90
31499;DHT22;18115;52.486;13.386;2023-02-17T15:35:26;10.80;99.90
31499;DHT22;18115;52.486;13.386;2023-02-17T15:37:52;10.70;99.90
31499;DHT22;18115;52.486;13.386;2023-02-17T15:40:25;10.70;99.90
31499;DHT22;18115;52.486;13.386;2023-02-17T15:42:56;10.60;99.90
31499;DHT22;18115;52.486;13.386;2023-02-17T15:45:24;10.50;99.90
31499;DHT22;18115;52.486;13.386;2023-02-17T15:47:53;10.70;99.90
31499;DHT22;18115;52.486;13.386;2023-02-17T15:50:21;10.70;99.90
31499;DHT22;18115;52.486;13.386;2023-02-17T15:52:48;10.70;99.90
31499;DHT22;18115;52.486;13.386;2023-02-17T15:55:16;10.70;99.90
31499;DHT22;18115;52.486;13.386;2023-02-17T15:57:48;10.70;99.90
31499;DHT22;18115;52.486;13.386;2023-02-17T16:02:44;10.70;99.90
31499;DHT22;18115;52.486;13.386;2023-02-17T16:05:12;10.80;99.90
31499;DHT22;18115;52.486;13.386;2023-02-17T16:07:37;10.80;99.90
31499;DHT22;18115;52.486;13.386;2023-02-17T16:10:04;10.70;99.90
31499;DHT22;18115;52.486;13.386;2023-02-17T16:12:31;10.80;99.90
31499;DHT22;18115;52.486;13.386;2023-02-17T16:14:57;10.80;99.90
31499;DHT22;18115;52.486;13.386;2023-02-17T16:17:23;10.80;99.90
31499;DHT22;18115;52.486;13.386;2023-02-17T16:19:49;10.80;99.90
31499;DHT22;18115;52.486;13.386;2023-02-17T16:22:14;10.90;99.90
31499;DHT22;18115;52.486;13.386;2023-02-17T16:24:40;10.90;99.90
31499;DHT22;18115;52.486;13.386;2023-02-17T16:27:07;10.90;99.90
31499;DHT22;18115;52.486;13.386;2023-02-17T16:29:34;10.90;99.90
31499;DHT22;18115;52.486;13.386;2023-02-17T16:32:00;10.90;99.90
31499;DHT22;18115;52.486;13.386;2023-02-17T16:34:26;10.90;99.90
31499;DHT22;18115;52.486;13.386;2023-02-17T16:36:59;10.90;99.90
31499;DHT22;18115;52.486;13.386;2023-02-17T16:39:26;10.90;99.90
31499;DHT22;18115;52.486;13.386;2023-02-17T16:41:52;10.90;99.90
31499;DHT22;18115;52.486;13.386;2023-02-17T16:44:20;10.90;99.90
31499;DHT22;18115;52.486;13.386;2023-02-17T16:46:49;11.00;99.90
31499;DHT22;18115;52.486;13.386;2023-02-17T16:49:19;11.10;99.90
31499;DHT22;18115;52.486;13.386;2023-02-17T16:51:45;11.20;99.90
31499;DHT22;18115;52.486;13.386;2023-02-17T16:54:11;11.20;99.90
31499;DHT22;18115;52.486;13.386;2023-02-17T16:56:41;11.20;99.90
31499;DHT22;18115;52.486;13.386;2023-02-17T16:59:12;11.20;99.90
31499;DHT22;18115;52.486;13.386;2023-02-17T17:01:38;11.20;99.90
31499;DHT22;18115;52.486;13.386;2023-02-17T17:04:03;11.90;99.90
31499;DHT22;18115;52.486;13.386;2023-02-17T17:06:29;11.70;99.90
31499;DHT22;18115;52.486;13.386;2023-02-17T17:08:55;11.20;99.90
31499;DHT22;18115;52.486;13.386;2023-02-17T17:11:23;11.20;99.90
31499;DHT22;18115;52.486;13.386;2023-02-17T17:13:50;11.30;99.90
31499;DHT22;18115;52.486;13.386;2023-02-17T17:18:41;11.20;99.90
31499;DHT22;18115;52.486;13.386;2023-02-17T17:21:10;11.20;99.90
31499;DHT22;18115;52.486;13.386;2023-02-17T17:23:37;11.20;99.90
31499;DHT22;18115;52.486;13.386;2023-02-17T17:26:12;11.10;99.90
31499;DHT22;18115;52.486;13.386;2023-02-17T17:28:38;11.10;99.90
31499;DHT22;18115;52.486;13.386;2023-02-17T17:31:04;11.10;99.90
31499;DHT22;18115;52.486;13.386;2023-02-17T17:33:29;11.10;99.90
31499;DHT22;18115;52.486;13.386;2023-02-17T17:35:55;11.00;99.90
31499;DHT22;18115;52.486;13.386;2023-02-17T17:38:21;11.10;99.90
31499;DHT22;18115;52.486;13.386;2023-02-17T17:40:46;11.10;99.90
31499;DHT22;18115;52.486;13.386;2023-02-17T17:43:17;11.10;99.90
31499;DHT22;18115;52.486;13.386;2023-02-17T17:45:45;11.10;99.90
31499;DHT22;18115;52.486;13.386;2023-02-17T17:48:12;11.10;99.90
31499;DHT22;18115;52.486;13.386;2023-02-17T17:50:38;11.20;99.90
31499;DHT22;18115;52.486;13.386;2023-02-17T17:53:04;11.20;99.90
31499;DHT22;18115;52.486;13.386;2023-02-17T17:55:29;11.20;99.90
31499;DHT22;18115;52.486;13.386;2023-02-17T17:57:55;11.20;99.90
31499;DHT22;18115;52.486;13.386;2023-02-17T18:00:20;11.30;99.90
31499;DHT22;18115;52.486;13.386;2023-02-17T18:02:46;11.30;99.90
31499;DHT22;18115;52.486;13.386;2023-02-17T18:05:12;11.20;99.90
31499;DHT22;18115;52.486;13.386;2023-02-17T18:07:39;11.20;99.90
31499;DHT22;18115;52.486;13.386;2023-02-17T18:10:06;11.10;99.90
31499;DHT22;18115;52.486;13.386;2023-02-17T18:12:34;11.00;99.90
31499;DHT22;18115;52.486;13.386;2023-02-17T18:15:01;11.00;99.90
31499;DHT22;18115;52.486;13.386;2023-02-17T18:17:31;10.90;99.90